Time;durP1;ratioP1;P1;durP2;ratioP2;P2;SDS_P1;SDS_P2;PMS_P1;PMS_P2;Temp;Humidity;BMP_temperature;BMP_pressure;BME280_temperature;BME280_humidity;BME280_pressure;Samples;Min_cycle;Max_cycle;Signal;HPM_P1;HPM_P2
2022/09/03 00:02:12;;;;;;;0.98;0.57;;;;;;;10.94;95.03;102028.81;6215155;23;20016;-83
2022/09/03 00:04:42;;;;;;;1.15;0.60;;;;;;;12.33;95.77;102250.31;6213870;23;20004;-82
2022/09/03 00:07:19;;;;;;;1.48;0.60;;;;;;;11.68;95.84;102150.72;6188547;23;20017;-81
2022/09/03 00:09:52;;;;;;;1.33;0.50;;;;;;;10.55;96.09;101962.25;6214945;23;20017;-82
2022/09/03 00:12:25;;;;;;;0.98;0.50;;;;;;;10.65;96.05;101984.44;6213997;23;20009;-83
2022/09/03 00:15:03;;;;;;;1.17;0.40;;;;;;;10.74;96.17;101996.03;6188558;23;19996;-83
2022/09/03 00:17:45;;;;;;;2.83;0.60;;;;;;;11.79;96.50;102153.06;6213612;23;20032;-82
2022/09/03 00:20:44;;;;;;;0.80;0.60;;;;;;;12.40;96.94;102261.25;6195255;23;20008;-82
2022/09/03 00:23:20;;;;;;;0.60;0.35;;;;;;;10.80;96.76;102012.34;6213757;23;20541;-83
2022/09/03 00:25:57;;;;;;;4.07;0.50;;;;;;;11.20;97.39;102069.84;6208181;23;19997;-83
2022/09/03 00:28:29;;;;;;;1.10;0.60;;;;;;;11.31;97.60;102082.09;6214390;23;19993;-83
2022/09/03 00:31:17;;;;;;;1.15;0.50;;;;;;;10.71;97.89;101991.81;6213556;23;20062;-82
2022/09/03 00:33:47;;;;;;;0.80;0.50;;;;;;;11.67;97.92;102166.06;6212993;23;20036;-83
2022/09/03 00:36:26;;;;;;;1.63;0.55;;;;;;;11.45;97.93;102129.03;6212541;23;20008;-83
2022/09/03 00:38:52;;;;;;;0.93;0.40;;;;;;;11.86;98.48;102194.53;6213286;23;20005;-82
2022/09/03 00:41:47;;;;;;;1.27;0.38;;;;;;;10.50;98.27;101978.06;6214035;23;20011;-83
2022/09/03 00:44:31;;;;;;;2.47;0.60;;;;;;;12.28;98.72;102263.50;6213481;23;20000;-83
2022/09/03 00:47:31;;;;;;;0.80;0.40;;;;;;;12.28;98.84;102257.25;6212748;23;20009;-82
2022/09/03 00:50:18;;;;;;;4.63;0.63;;;;;;;12.27;99.17;102266.38;6213353;23;19993;-83
2022/09/03 00:53:03;;;;;;;1.83;0.40;;;;;;;10.96;98.96;102054.56;6212780;23;20013;-83
2022/09/03 00:55:35;;;;;;;;;;;;;;;12.17;99.54;102270.13;6213279;23;20012;-83
2022/09/03 00:58:26;;;;;;;0.80;0.52;;;;;;;12.18;99.32;102266.38;6213102;23;19915;-83
2022/09/03 01:00:52;;;;;;;4.75;0.63;;;;;;;10.46;99.75;101995.56;6212860;23;20002;-83
2022/09/03 01:03:32;;;;;;;1.88;0.70;;;;;;;11.09;100.00;102099.81;6212267;23;20005;-82
2022/09/03 01:06:10;;;;;;;2.90;0.50;;;;;;;12.04;100.00;102242.84;6212728;23;20028;-83
2022/09/03 01:08:53;;;;;;;0.65;0.43;;;;;;;12.13;100.00;102263.38;6213492;23;19989;-83
2022/09/03 01:11:44;;;;;;;1.50;0.50;;;;;;;12.12;100.00;102260.84;6213648;23;20001;-83
2022/09/03 01:14:38;;;;;;;1.23;0.60;;;;;;;10.48;100.00;102007.00;6213530;23;20031;-83
2022/09/03 01:17:35;;;;;;;1.90;0.50;;;;;;;12.11;100.00;102259.16;6212533;23;20056;-82
2022/09/03 01:20:17;;;;;;;0.77;0.40;;;;;;;10.27;100.00;101978.75;6213315;23;20025;-83
2022/09/03 01:23:16;;;;;;;2.80;0.90;;;;;;;12.08;100.00;102259.53;6213025;23;20016;-83
2022/09/03 01:26:07;;;;;;;1.15;0.40;;;;;;;12.05;100.00;102258.00;6188426;23;20077;-83
2022/09/03 01:28:53;;;;;;;2.13;0.40;;;;;;;11.66;100.00;102215.63;6187792;23;19990;-83
2022/09/03 01:31:36;;;;;;;1.08;0.50;;;;;;;10.68;100.00;102051.38;6213859;23;20009;-83
2022/09/03 01:34:12;;;;;;;1.70;0.52;;;;;;;10.33;100.00;101996.06;6187979;23;20009;-82
2022/09/03 01:36:55;;;;;;;1.50;0.50;;;;;;;12.01;100.00;102253.13;6213743;23;19993;-83
2022/09/03 01:39:53;;;;;;;0.85;0.60;;;;;;;10.72;100.00;102041.13;6187958;23;20068;-83
2022/09/03 01:42:37;;;;;;;0.90;0.50;;;;;;;10.67;100.00;102043.50;6187174;23;19997;-83
2022/09/03 01:45:11;;;;;;;0.88;0.52;;;;;;;11.92;100.00;102252.31;6187288;23;20016;-83
2022/09/03 01:47:52;;;;;;;1.80;0.50;;;;;;;11.89;100.00;102242.72;6188026;23;19985;-83
2022/09/03 01:50:45;;;;;;;0.85;0.50;;;;;;;10.47;100.00;102026.84;6187208;23;20028;-82
2022/09/03 01:53:29;;;;;;;2.90;0.65;;;;;;;11.85;100.00;102248.63;6187932;23;20020;-82
2022/09/03 01:56:21;;;;;;;1.88;0.50;;;;;;;11.82;100.00;102260.59;6187173;23;20037;-83
2022/09/03 01:58:59;;;;;;;2.97;0.60;;;;;;;10.49;100.00;102049.03;6144181;23;20005;-82
2022/09/03 02:01:31;;;;;;;1.60;0.50;;;;;;;11.23;100.00;102155.72;6187424;23;20009;-83
2022/09/03 02:03:58;;;;;;;1.20;0.43;;;;;;;10.47;100.00;102051.06;6188214;23;20022;-83
2022/09/03 02:06:26;;;;;;;2.05;0.60;;;;;;;11.57;100.00;102232.81;6186666;23;20024;-82
2022/09/03 02:08:52;;;;;;;2.13;0.70;;;;;;;10.00;100.00;101976.34;6187003;23;19993;-82
2022/09/03 02:11:18;;;;;;;1.50;0.52;;;;;;;10.64;100.00;102076.97;6212323;23;20073;-82
2022/09/03 02:14:03;;;;;;;3.15;0.65;;;;;;;11.77;100.00;102246.75;6212856;23;19997;-82
2022/09/03 02:16:31;;;;;;;;;;;;;;;11.72;100.00;102243.72;6187857;23;19993;-82
2022/09/03 02:19:04;;;;;;;1.33;0.50;;;;;;;10.22;100.00;102025.97;6212638;23;19903;-82
2022/09/03 02:21:35;;;;;;;2.13;0.45;;;;;;;10.50;100.00;102074.97;6210387;23;20051;-83
2022/09/03 02:24:04;;;;;;;1.42;0.60;;;;;;;10.94;100.00;102140.06;6212130;23;19992;-83
2022/09/03 02:26:30;;;;;;;1.63;0.50;;;;;;;10.05;100.00;101985.59;6213570;23;20028;-82
2022/09/03 02:28:56;;;;;;;2.38;0.80;;;;;;;10.08;100.00;102006.78;6212130;23;20016;-82
2022/09/03 02:31:22;;;;;;;3.00;0.68;;;;;;;10.59;100.00;102090.06;6212373;23;19993;-82
2022/09/03 02:33:50;;;;;;;2.05;0.57;;;;;;;10.64;100.00;102081.50;6213143;23;19993;-82
2022/09/03 02:36:20;;;;;;;1.85;0.60;;;;;;;10.22;100.00;102028.66;6212556;23;19993;-82
2022/09/03 02:38:46;;;;;;;2.88;0.60;;;;;;;11.38;100.00;102208.91;6212550;23;19997;-83
2022/09/03 02:41:12;;;;;;;1.15;0.50;;;;;;;10.22;100.00;102031.34;6212857;23;20012;-83
2022/09/03 02:43:50;;;;;;;0.82;0.50;;;;;;;11.53;100.00;102242.25;6212691;23;19997;-82
2022/09/03 02:46:23;;;;;;;1.38;0.60;;;;;;;10.22;100.00;102036.72;6213554;23;20013;-83
2022/09/03 02:48:48;;;;;;;2.22;0.60;;;;;;;10.20;100.00;102031.53;6212657;23;19993;-82
2022/09/03 02:51:14;;;;;;;1.20;0.55;;;;;;;9.97;100.00;102000.91;6213157;23;20020;-83
2022/09/03 02:53:40;;;;;;;4.25;0.70;;;;;;;10.12;100.00;102026.13;6212205;23;20012;-83
2022/09/03 02:56:05;;;;;;;1.73;0.43;;;;;;;9.71;100.00;101972.28;6212937;23;20045;-83
2022/09/03 02:58:31;;;;;;;2.10;0.50;;;;;;;10.18;100.00;102041.59;6212321;23;19985;-82
2022/09/03 03:00:57;;;;;;;1.90;0.60;;;;;;;11.31;100.00;102219.53;6211704;23;20028;-83
2022/09/03 03:03:23;;;;;;;0.88;0.55;;;;;;;9.70;100.00;101967.06;6212859;23;19990;-83
2022/09/03 03:05:51;;;;;;;4.30;0.60;;;;;;;9.61;100.00;101956.31;6212171;23;19997;-83
2022/09/03 03:08:20;;;;;;;1.77;0.60;;;;;;;9.69;100.00;101974.28;6213520;23;20020;-83
2022/09/03 03:10:48;;;;;;;0.77;0.50;;;;;;;9.58;100.00;101951.25;6212447;23;20024;-83
2022/09/03 03:13:15;;;;;;;2.67;0.50;;;;;;;10.87;100.00;102165.16;6212478;23;19989;-83
2022/09/03 03:15:41;;;;;;;1.05;0.60;;;;;;;10.08;100.00;102035.53;6215268;23;20045;-81
2022/09/03 03:18:07;;;;;;;0.82;0.43;;;;;;;9.52;100.00;101951.91;6214492;23;20000;-83
2022/09/03 03:20:33;;;;;;;1.90;0.70;;;;;;;9.69;100.00;101976.97;6213700;23;20005;-83
2022/09/03 03:23:03;;;;;;;0.80;0.40;;;;;;;9.88;100.00;102000.88;6213953;23;20009;-83
2022/09/03 03:25:32;;;;;;;1.15;0.50;;;;;;;9.45;100.00;101947.34;6214828;23;19993;-83
2022/09/03 03:27:57;;;;;;;1.42;0.60;;;;;;;11.23;100.00;102227.63;6213993;23;19993;-82
2022/09/03 03:30:23;;;;;;;2.88;0.63;;;;;;;10.68;100.00;102134.00;6213710;23;19989;-83
2022/09/03 03:32:51;;;;;;;0.63;0.40;;;;;;;9.51;100.00;101970.88;6213560;23;19997;-82
2022/09/03 03:35:17;;;;;;;2.97;0.65;;;;;;;11.21;100.00;102252.03;6214117;23;20000;-83
2022/09/03 03:37:42;;;;;;;1.25;0.40;;;;;;;10.90;100.00;102183.66;6214750;23;19993;-83
2022/09/03 03:40:09;;;;;;;1.85;0.40;;;;;;;11.13;100.00;102226.94;6214118;23;19985;-82
2022/09/03 03:42:34;;;;;;;1.30;0.60;;;;;;;9.99;100.00;102058.03;6215044;23;20009;-81
2022/09/03 03:45:01;;;;;;;4.95;0.60;;;;;;;11.10;100.00;102228.13;6213506;23;20020;-82
2022/09/03 03:47:29;;;;;;;0.98;0.40;;;;;;;9.82;100.00;102017.66;6214625;23;20028;-83
2022/09/03 03:49:59;;;;;;;2.47;0.60;;;;;;;9.76;100.00;102012.94;6214473;23;19989;-82
2022/09/03 03:52:25;;;;;;;1.25;0.60;;;;;;;9.35;100.00;101951.03;6213841;23;20013;-83
2022/09/03 03:54:51;;;;;;;1.23;0.47;;;;;;;9.46;100.00;101965.16;6213755;23;20013;-82
2022/09/03 03:57:20;;;;;;;3.15;0.52;;;;;;;9.79;100.00;102028.72;6213806;23;20021;-83
2022/09/03 03:59:47;;;;;;;1.10;0.50;;;;;;;10.49;100.00;102144.06;6214326;23;19989;-82
2022/09/03 04:02:13;;;;;;;3.90;0.60;;;;;;;10.10;100.00;102068.50;6213396;23;20076;-82
2022/09/03 04:04:39;;;;;;;3.13;0.60;;;;;;;9.67;100.00;102003.19;6214326;23;20012;-82
2022/09/03 04:07:04;;;;;;;1.00;0.47;;;;;;;9.90;100.00;102041.06;6213439;23;20004;-82
2022/09/03 04:09:30;;;;;;;2.30;0.40;;;;;;;9.77;100.00;102021.84;6213377;23;20005;-82
2022/09/03 04:11:58;;;;;;;2.90;0.70;;;;;;;9.75;100.00;102016.63;6214096;22;20000;-82
2022/09/03 04:14:25;;;;;;;0.80;0.52;;;;;;;9.63;100.00;101991.94;6213767;23;19996;-82
2022/09/03 04:16:50;;;;;;;2.25;0.60;;;;;;;9.62;100.00;101997.44;6214995;23;20020;-81
2022/09/03 04:19:16;;;;;;;0.68;0.40;;;;;;;11.11;100.00;102237.03;6213877;23;19989;-81
2022/09/03 04:21:42;;;;;;;0.65;0.40;;;;;;;10.03;100.00;102054.00;6214706;23;20029;-82
2022/09/03 04:24:08;;;;;;;1.15;0.60;;;;;;;9.92;100.00;102055.16;6214207;23;20005;-82
2022/09/03 04:26:34;;;;;;;1.58;0.40;;;;;;;10.43;100.00;102134.00;6213615;23;19997;-83
2022/09/03 04:29:02;;;;;;;0.98;0.50;;;;;;;10.51;100.00;102130.47;6188472;23;20029;-82
2022/09/03 04:31:28;;;;;;;1.08;0.55;;;;;;;11.10;100.00;102233.50;6188714;23;20028;-83
2022/09/03 04:33:54;;;;;;;1.23;0.40;;;;;;;9.97;100.00;102058.19;6214065;23;19989;-82
2022/09/03 04:36:22;;;;;;;0.65;0.30;;;;;;;9.70;100.00;102010.06;6213874;23;20052;-82
2022/09/03 04:38:49;;;;;;;1.67;0.50;;;;;;;10.49;100.00;102030.19;6213959;23;20009;-82
2022/09/03 04:41:17;;;;;;;1.75;0.60;;;;;;;11.22;100.00;102031.94;6188672;23;19997;-82
2022/09/03 04:43:44;;;;;;;1.48;0.50;;;;;;;13.00;98.81;102249.78;6214454;23;20000;-82
2022/09/03 04:46:12;;;;;;;0.93;0.32;;;;;;;12.82;95.94;102149.28;6188115;23;20028;-82
2022/09/03 04:48:38;;;;;;;1.67;0.50;;;;;;;12.18;93.33;101995.72;6213628;23;20000;-83
2022/09/03 04:51:09;;;;;;;1.20;0.30;;;;;;;12.62;91.90;102025.56;6212697;23;19998;-81
2022/09/03 04:53:38;;;;;;;2.30;0.50;;;;;;;12.69;89.52;101985.16;6186222;23;20462;-82
2022/09/03 04:56:22;;;;;;;1.52;0.50;;;;;;;12.93;88.31;101973.25;6186309;23;20009;-82
2022/09/03 04:58:53;;;;;;;1.10;0.40;;;;;;;13.53;85.46;101998.38;6212308;23;20001;-81
2022/09/03 05:01:24;;;;;;;2.70;0.50;;;;;;;14.39;83.74;102075.09;6211607;23;20067;-82
2022/09/03 05:03:51;;;;;;;1.02;0.45;;;;;;;14.46;82.51;102083.28;6185504;23;20005;-82
2022/09/03 05:06:17;;;;;;;1.33;0.30;;;;;;;14.09;81.36;101985.06;6185824;23;20041;-81
2022/09/03 05:08:43;;;;;;;1.13;0.50;;;;;;;14.89;79.77;102070.56;6210645;23;20012;-81
2022/09/03 05:11:09;;;;;;;2.22;0.40;;;;;;;14.57;78.15;101977.19;6185161;23;19993;-83
2022/09/03 05:13:38;;;;;;;1.70;0.40;;;;;;;15.90;77.06;102165.97;6185811;23;20039;-83
2022/09/03 05:16:07;;;;;;;1.75;0.52;;;;;;;15.95;75.77;102143.66;6187683;23;20005;-83
2022/09/03 05:18:36;;;;;;;1.75;0.47;;;;;;;15.08;74.54;101982.28;6185043;23;20024;-82
2022/09/03 05:21:05;;;;;;;1.30;0.60;;;;;;;17.09;72.67;102233.47;6203016;23;20032;-82
2022/09/03 05:23:35;;;;;;;0.68;0.43;;;;;;;16.83;71.07;102146.44;6210336;23;20009;-82
2022/09/03 05:26:03;;;;;;;0.88;0.40;;;;;;;16.87;69.21;102126.75;6210722;23;19993;-82
2022/09/03 05:28:30;;;;;;;1.00;0.40;;;;;;;16.18;68.02;101986.66;6211968;23;20000;-82
2022/09/03 05:31:01;;;;;;;4.97;0.70;;;;;;;16.44;68.19;102039.31;6212150;23;20447;-82
2022/09/03 05:33:26;;;;;;;1.10;0.60;;;;;;;16.93;66.62;102102.50;6210774;23;20005;-82
2022/09/03 05:35:54;;;;;;;0.98;0.40;;;;;;;15.70;71.57;102065.47;6212388;23;20039;-81
2022/09/03 05:38:22;;;;;;;1.73;0.60;;;;;;;13.94;79.11;101987.84;6211304;23;20075;-82
2022/09/03 05:40:48;;;;;;;1.58;0.40;;;;;;;13.39;83.62;101989.28;6211452;23;20015;-82
2022/09/03 05:43:15;;;;;;;1.35;0.45;;;;;;;14.72;85.93;102261.56;6211108;23;20009;-82
2022/09/03 05:45:41;;;;;;;0.75;0.35;;;;;;;13.12;87.19;102018.63;6211165;23;19993;-83
2022/09/03 05:48:06;;;;;;;2.15;0.50;;;;;;;14.47;88.06;102236.63;6210736;23;20016;-82
2022/09/03 05:50:32;;;;;;;0.85;0.30;;;;;;;14.40;88.32;102250.09;6211397;23;20016;-83
2022/09/03 05:52:58;;;;;;;2.25;0.60;;;;;;;14.39;88.30;102240.28;6212117;23;20024;-82
2022/09/03 05:55:24;;;;;;;0.95;0.40;;;;;;;14.40;88.34;102249.25;6210951;23;20048;-83
2022/09/03 05:57:52;;;;;;;0.70;0.45;;;;;;;13.27;88.03;102063.75;6210417;23;20009;-82
2022/09/03 06:00:19;;;;;;;1.08;0.38;;;;;;;13.29;87.69;102072.53;6210912;23;20021;-82
2022/09/03 06:02:51;;;;;;;1.38;0.40;;;;;;;12.83;87.23;101994.28;6209165;23;20005;-82
2022/09/03 06:05:17;;;;;;;0.68;0.35;;;;;;;13.57;87.24;102087.06;6210945;23;20063;-84
2022/09/03 06:10:18;;;;;;;0.93;0.30;;;;;;;13.80;86.19;102107.75;6166968;23;20244;-82
2022/09/03 06:12:48;;;;;;;0.63;0.30;;;;;;;13.37;85.80;102031.88;6213212;23;20017;-83
2022/09/03 06:15:13;;;;;;;2.50;1.02;;;;;;;13.81;85.14;102093.22;6212065;23;20005;-84
2022/09/03 06:17:39;;;;;;;0.75;0.38;;;;;;;13.55;84.87;102043.16;6181834;23;20060;-82
2022/09/03 06:20:05;;;;;;;1.58;0.40;;;;;;;13.53;84.06;102017.31;6182530;23;20036;-81
2022/09/03 06:22:31;;;;;;;1.83;0.43;;;;;;;13.93;83.51;102071.91;6204168;23;20000;-81
2022/09/03 06:24:56;;;;;;;1.20;0.60;;;;;;;13.82;82.95;102011.84;6202045;23;20000;-81
2022/09/03 06:27:23;;;;;;;2.22;0.40;;;;;;;14.39;82.37;102104.88;6206322;23;20005;-82
2022/09/03 06:32:24;;;;;;;0.65;0.32;;;;;;;14.63;80.93;102116.41;6207160;23;20029;-81
2022/09/03 06:34:50;;;;;;;2.17;0.40;;;;;;;14.96;80.59;102170.91;6160185;23;20020;-81
2022/09/03 06:37:16;;;;;;;1.77;0.45;;;;;;;15.31;80.39;102211.69;6181569;23;19997;-81
2022/09/03 06:39:41;;;;;;;0.75;0.30;;;;;;;15.22;79.38;102175.72;6177206;23;20423;-80
2022/09/03 06:42:08;;;;;;;1.05;0.40;;;;;;;14.90;78.92;102120.19;6203923;23;19996;-80
2022/09/03 06:44:33;;;;;;;0.70;0.40;;;;;;;15.43;78.77;102191.97;6179252;23;20020;-80
2022/09/03 06:47:00;;;;;;;1.83;0.40;;;;;;;14.75;77.99;102077.75;6176798;23;20064;-81
2022/09/03 06:49:25;;;;;;;1.05;0.40;;;;;;;15.34;77.69;102141.59;6170010;23;20012;-80
2022/09/03 06:51:51;;;;;;;1.27;0.43;;;;;;;16.12;77.10;102259.00;6173459;23;20009;-79
2022/09/03 06:54:16;;;;;;;1.15;0.47;;;;;;;16.21;76.65;102259.69;6148313;23;20048;-80
2022/09/03 06:56:41;;;;;;;1.17;0.40;;;;;;;16.25;76.20;102258.25;6159162;23;20016;-81
2022/09/03 06:59:12;;;;;;;0.90;0.38;;;;;;;16.39;75.28;102265.44;6214476;23;19989;-82
2022/09/03 07:01:39;;;;;;;2.15;0.40;;;;;;;16.44;74.90;102267.53;6213887;23;20016;-83
2022/09/03 07:04:07;;;;;;;0.73;0.45;;;;;;;16.55;74.45;102263.41;6188784;23;19993;-81
2022/09/03 07:06:38;;;;;;;1.27;0.40;;;;;;;16.58;73.28;102271.16;6187660;23;20017;-83
2022/09/03 07:09:05;;;;;;;1.13;0.40;;;;;;;16.67;73.23;102265.31;6188200;23;20016;-83
2022/09/03 07:11:32;;;;;;;0.60;0.32;;;;;;;16.67;72.66;102256.34;6189384;23;20005;-84
2022/09/03 07:13:58;;;;;;;1.95;0.50;;;;;;;16.70;72.06;102261.38;6187796;23;19995;-84
2022/09/03 07:16:30;;;;;;;0.77;0.30;;;;;;;16.90;71.53;102266.91;6213319;23;20040;-82
2022/09/03 07:18:56;;;;;;;0.52;0.25;;;;;;;16.90;70.69;102270.44;6180652;23;20017;-81
2022/09/03 07:21:24;;;;;;;1.65;0.50;;;;;;;17.02;70.15;102275.28;6211931;23;20011;-82
2022/09/03 07:23:52;;;;;;;1.17;0.40;;;;;;;16.69;69.58;102205.34;6208842;23;20008;-81
2022/09/03 07:26:26;;;;;;;0.88;0.30;;;;;;;17.17;68.73;102266.94;6185821;23;20012;-83
2022/09/03 07:28:55;;;;;;;0.70;0.40;;;;;;;17.26;68.54;102271.16;6186222;23;20033;-82
2022/09/03 07:31:26;;;;;;;0.80;0.40;;;;;;;17.30;67.69;102264.25;6196637;23;20013;-81
2022/09/03 07:33:56;;;;;;;2.38;0.60;;;;;;;17.35;66.67;102264.44;6210712;23;19989;-81
2022/09/03 07:36:23;;;;;;;2.22;0.80;;;;;;;17.31;66.58;102249.56;6212151;23;20005;-83
2022/09/03 07:38:49;;;;;;;2.15;0.82;;;;;;;17.62;66.14;102265.28;6211707;23;20030;-81
2022/09/03 07:41:14;;;;;;;2.28;0.60;;;;;;;17.36;64.49;102253.34;6211040;23;20024;-82
2022/09/03 07:43:42;;;;;;;0.85;0.38;;;;;;;17.57;64.58;102257.75;6213375;23;20009;-82
2022/09/03 07:46:11;;;;;;;1.63;0.50;;;;;;;17.48;63.28;102230.94;6213231;23;20012;-82
2022/09/03 07:48:37;;;;;;;1.23;0.40;;;;;;;17.57;62.95;102246.03;6212648;23;19988;-82
2022/09/03 07:51:03;;;;;;;0.55;0.35;;;;;;;17.39;63.19;102224.91;6212495;23;20048;-82
2022/09/03 07:53:29;;;;;;;4.03;0.30;;;;;;;17.60;62.80;102259.22;6162846;23;20013;-81
2022/09/03 07:56:04;;;;;;;0.93;0.30;;;;;;;17.67;61.94;102256.47;6211621;23;19997;-82
2022/09/03 07:58:30;;;;;;;1.05;0.40;;;;;;;17.93;62.23;102261.09;6210708;23;19993;-82
2022/09/03 08:00:57;;;;;;;1.35;0.60;;;;;;;17.93;61.38;102240.13;6210724;23;20020;-82
2022/09/03 08:03:22;;;;;;;2.20;0.40;;;;;;;18.06;60.55;102258.34;6212323;23;19989;-83
2022/09/03 08:05:48;;;;;;;0.47;0.30;;;;;;;18.06;60.56;102261.91;6187804;23;19996;-83
2022/09/03 08:08:13;;;;;;;0.90;0.30;;;;;;;18.25;60.35;102262.91;6211734;23;20016;-82
2022/09/03 08:10:40;;;;;;;4.03;0.40;;;;;;;18.36;59.67;102268.72;6188157;23;19989;-82
2022/09/03 08:13:06;;;;;;;0.65;0.30;;;;;;;18.42;59.04;102267.88;6212565;23;20009;-82
2022/09/03 08:15:33;;;;;;;0.60;0.30;;;;;;;18.50;59.14;102259.44;6212801;23;20008;-82
2022/09/03 08:17:59;;;;;;;0.60;0.40;;;;;;;18.49;58.87;102247.69;6210287;23;20009;-80
2022/09/03 08:20:26;;;;;;;2.55;0.40;;;;;;;18.57;58.31;102252.06;6209524;23;20077;-81
2022/09/03 08:22:59;;;;;;;1.48;0.30;;;;;;;18.68;57.98;102262.28;6210391;23;20001;-81
2022/09/03 08:25:25;;;;;;;0.52;0.30;;;;;;;18.78;57.90;102259.97;6208664;23;20009;-80
2022/09/03 08:27:50;;;;;;;3.38;0.40;;;;;;;18.73;57.63;102248.03;6210057;23;20005;-81
2022/09/03 08:30:16;;;;;;;2.22;0.35;;;;;;;18.95;57.54;102256.72;6183852;23;20017;-81
2022/09/03 08:32:41;;;;;;;0.68;0.40;;;;;;;18.76;57.22;102237.53;6184138;23;20005;-82
2022/09/03 08:35:08;;;;;;;1.17;0.30;;;;;;;18.89;57.03;102260.31;6184121;23;20113;-81
2022/09/03 08:37:33;;;;;;;1.45;0.40;;;;;;;18.90;56.41;102262.00;6209665;23;19989;-82
2022/09/03 08:39:59;;;;;;;1.35;0.57;;;;;;;19.00;56.30;102262.34;6184784;23;20008;-81
2022/09/03 08:42:50;;;;;;;0.98;0.43;;;;;;;19.12;56.28;102265.22;6210583;23;20024;-82
2022/09/03 08:45:20;;;;;;;1.23;0.43;;;;;;;19.02;56.38;102243.88;6209258;23;20011;-81
2022/09/03 08:48:02;;;;;;;1.17;0.75;;;;;;;19.14;56.05;102274.00;6184366;23;20012;-81
2022/09/03 08:50:31;;;;;;;6.28;1.70;;;;;;;19.22;56.04;102266.38;6210337;23;20056;-81
2022/09/03 08:53:06;;;;;;;3.53;1.48;;;;;;;19.23;55.62;102268.06;6184018;23;20019;-81
2022/09/03 08:55:57;;;;;;;1.20;0.57;;;;;;;19.27;55.24;102264.88;6210193;23;20017;-82
2022/09/03 08:58:26;;;;;;;0.80;0.40;;;;;;;19.25;55.33;102267.84;6186232;23;20009;-81
2022/09/03 09:01:02;;;;;;;3.20;0.50;;;;;;;19.32;55.28;102265.91;6187202;23;19989;-81
2022/09/03 09:03:30;;;;;;;1.10;0.45;;;;;;;19.48;54.80;102259.06;6187460;23;20013;-81
2022/09/03 09:06:12;;;;;;;4.00;0.50;;;;;;;19.51;54.87;102263.25;6185525;23;20469;-81
2022/09/03 09:09:06;;;;;;;1.48;0.35;;;;;;;19.43;54.85;102239.75;6210602;23;20056;-81
2022/09/03 09:11:54;;;;;;;0.45;0.30;;;;;;;19.53;54.50;102259.22;6183567;23;20387;-81
2022/09/03 09:14:35;;;;;;;0.88;0.40;;;;;;;19.44;54.73;102238.72;6210324;23;19988;-81
2022/09/03 09:17:16;;;;;;;0.93;0.40;;;;;;;19.56;54.50;102256.03;6183946;23;20013;-81
2022/09/03 09:19:53;;;;;;;0.88;0.40;;;;;;;19.42;54.83;102233.47;6184569;23;20005;-81
2022/09/03 09:23:02;;;;;;;2.63;0.63;;;;;;;19.44;54.57;102257.84;6210210;23;19992;-81
2022/09/03 09:25:30;;;;;;;1.67;0.47;;;;;;;19.51;54.93;102255.06;6209836;23;20016;-81
2022/09/03 09:28:21;;;;;;;0.90;0.40;;;;;;;19.42;54.75;102258.03;6160360;23;20024;-81
2022/09/03 09:30:48;;;;;;;1.05;0.40;;;;;;;19.45;54.74;102259.50;6209717;23;20036;-81
2022/09/03 09:33:15;;;;;;;0.90;0.40;;;;;;;19.50;54.29;102254.19;6184547;23;20003;-81
2022/09/03 09:35:42;;;;;;;1.95;0.40;;;;;;;19.55;53.88;102253.53;6209781;23;20045;-81
2022/09/03 09:38:08;;;;;;;2.00;0.57;;;;;;;19.63;53.57;102245.91;6210420;23;20016;-81
2022/09/03 09:40:41;;;;;;;0.55;0.30;;;;;;;19.71;53.74;102251.09;6209396;23;19985;-82
2022/09/03 09:43:06;;;;;;;0.60;0.35;;;;;;;19.80;53.25;102246.19;6209305;23;20104;-80
2022/09/03 09:45:36;;;;;;;3.05;0.50;;;;;;;19.86;53.61;102245.25;6209947;23;20005;-82
2022/09/03 09:48:05;;;;;;;0.93;0.32;;;;;;;19.97;53.58;102245.56;6159700;23;20081;-81
2022/09/03 09:50:31;;;;;;;0.50;0.32;;;;;;;19.92;53.69;102254.47;6183311;23;19993;-81
2022/09/03 09:53:13;;;;;;;1.23;0.40;;;;;;;19.87;53.42;102241.50;6210168;23;20004;-79
2022/09/03 09:55:48;;;;;;;2.30;0.85;;;;;;;19.91;52.82;102244.59;6186380;23;20020;-81
2022/09/03 09:58:13;;;;;;;2.85;0.60;;;;;;;19.94;53.37;102241.41;6183263;23;20008;-80
2022/09/03 10:00:41;;;;;;;1.17;0.30;;;;;;;19.94;53.01;102236.78;6183667;23;20050;-81
2022/09/03 10:03:12;;;;;;;0.73;0.40;;;;;;;19.85;53.31;102216.28;6185216;23;20009;-80
2022/09/03 10:05:39;;;;;;;2.05;0.50;;;;;;;20.03;52.77;102229.09;6159221;23;20020;-81
2022/09/03 10:08:20;;;;;;;1.33;0.30;;;;;;;20.03;52.53;102237.31;6160289;23;19997;-83
2022/09/03 10:10:48;;;;;;;1.30;0.50;;;;;;;20.17;52.88;102252.50;6183622;23;20000;-83
2022/09/03 10:13:42;;;;;;;1.20;0.50;;;;;;;20.21;52.38;102249.31;6209716;23;20016;-83
2022/09/03 10:16:20;;;;;;;2.05;0.38;;;;;;;20.33;52.85;102255.66;6208279;23;20028;-84
2022/09/03 10:19:00;;;;;;;0.80;0.30;;;;;;;20.29;52.74;102238.91;6208109;23;20005;-84
2022/09/03 10:21:44;;;;;;;0.63;0.43;;;;;;;20.21;52.74;102238.38;6207090;23;20016;-81
2022/09/03 10:24:28;;;;;;;0.85;0.50;;;;;;;20.30;52.57;102253.44;6209810;23;20011;-83
2022/09/03 10:26:54;;;;;;;0.50;0.30;;;;;;;20.39;52.30;102249.28;6207123;23;20001;-83
2022/09/03 10:29:29;;;;;;;0.70;0.38;;;;;;;20.36;52.66;102244.28;6181062;23;20009;-83
2022/09/03 10:32:02;;;;;;;0.98;0.30;;;;;;;20.41;52.04;102244.44;6196417;23;20032;-82
2022/09/03 10:34:37;;;;;;;2.08;0.45;;;;;;;20.44;52.11;102246.72;6206244;23;20104;-83
2022/09/03 10:37:21;;;;;;;1.00;0.40;;;;;;;20.53;52.20;102239.91;6205923;23;20005;-82
2022/09/03 10:40:04;;;;;;;0.60;0.40;;;;;;;20.60;52.08;102240.66;6207097;23;20001;-83
2022/09/03 10:42:53;;;;;;;0.68;0.30;;;;;;;20.61;51.83;102231.38;6207969;23;20001;-80
2022/09/03 10:45:31;;;;;;;1.88;0.43;;;;;;;20.68;51.49;102241.38;6209091;23;20054;-80
2022/09/03 10:48:12;;;;;;;0.88;0.40;;;;;;;20.62;52.08;102243.97;6208323;23;20061;-81
2022/09/03 10:50:49;;;;;;;0.55;0.40;;;;;;;20.62;51.90;102243.97;6207103;23;20035;-81
2022/09/03 10:53:24;;;;;;;0.93;0.40;;;;;;;20.68;51.57;102241.38;6209107;23;20008;-79
2022/09/03 10:56:05;;;;;;;2.65;0.50;;;;;;;20.75;50.78;102232.00;6206595;23;20016;-81
2022/09/03 10:59:05;;;;;;;0.75;0.40;;;;;;;20.70;50.68;102214.66;6205604;23;20001;-80
2022/09/03 11:01:59;;;;;;;1.00;0.47;;;;;;;20.88;50.19;102233.72;6195847;23;20009;-79
2022/09/03 11:05:02;;;;;;;1.35;0.50;;;;;;;20.92;50.07;102226.72;6195999;23;20351;-79
2022/09/03 11:07:36;;;;;;;2.72;0.45;;;;;;;20.94;49.98;102212.81;6195698;23;20008;-79
2022/09/03 11:10:16;;;;;;;2.35;0.60;;;;;;;20.99;50.22;102227.47;6193656;23;20018;-82
2022/09/03 11:12:54;;;;;;;0.70;0.43;;;;;;;21.01;49.75;102232.69;6188479;23;20079;-82
2022/09/03 11:15:25;;;;;;;1.00;0.50;;;;;;;21.00;49.80;102215.44;6187930;23;20314;-82
2022/09/03 11:17:57;;;;;;;0.60;0.43;;;;;;;21.05;50.00;102207.34;6190674;23;20012;-82
2022/09/03 11:20:24;;;;;;;0.82;0.40;;;;;;;20.85;49.62;102212.31;6192708;23;20005;-82
2022/09/03 11:22:58;;;;;;;1.98;0.40;;;;;;;20.97;49.80;102206.88;6190485;23;20083;-81
2022/09/03 11:25:31;;;;;;;2.60;0.47;;;;;;;21.21;49.77;102216.78;6199377;23;20001;-83
2022/09/03 11:28:11;;;;;;;0.70;0.40;;;;;;;21.30;49.53;102212.63;6194713;23;20009;-80
2022/09/03 11:30:59;;;;;;;1.58;0.50;;;;;;;21.36;49.15;102202.69;6185082;23;20111;-80
2022/09/03 11:33:27;;;;;;;1.80;0.60;;;;;;;21.39;49.45;102210.41;6185479;23;20020;-80
2022/09/03 11:36:00;;;;;;;1.63;0.50;;;;;;;21.36;49.15;102199.94;6161706;23;20015;-80
2022/09/03 11:38:29;;;;;;;1.70;0.52;;;;;;;21.26;49.69;102195.03;6161073;23;20012;-80
2022/09/03 11:41:14;;;;;;;1.13;0.52;;;;;;;21.40;49.99;102203.88;6187870;23;20040;-81
2022/09/03 11:43:41;;;;;;;2.70;0.40;;;;;;;21.56;49.50;102216.84;6160842;23;20087;-80
2022/09/03 11:46:13;;;;;;;0.68;0.63;;;;;;;21.51;49.29;102192.06;6162152;23;20008;-80
2022/09/03 11:48:42;;;;;;;0.75;0.50;;;;;;;21.65;49.13;102206.34;6188991;23;20033;-80
2022/09/03 11:51:28;;;;;;;0.80;0.40;;;;;;;21.71;48.77;102210.03;6192354;23;20009;-80
2022/09/03 11:54:02;;;;;;;0.68;0.40;;;;;;;21.79;48.64;102196.81;6161839;23;20388;-80